Time;durP1;ratioP1;P1;durP2;ratioP2;P2;SDS_P1;SDS_P2;PMS_P1;PMS_P2;Temp;Humidity;BMP_temperature;BMP_pressure;BME280_temperature;BME280_humidity;BME280_pressure;Samples;Min_cycle;Max_cycle;Signal;HPM_P1;HPM_P2
2023/12/25 00:00:50;;;;;;;310.00;151.67;;;;;21.40;99396.00;;;;2073260;28;20249;-57
2023/12/25 00:01:51;;;;;;;306.23;144.60;;;;;21.40;99403.00;;;;2051504;28;20249;-57
2023/12/25 00:02:51;;;;;;;295.80;141.83;;;;;21.40;99393.00;;;;2077909;28;20225;-57
2023/12/25 00:03:52;;;;;;;276.57;134.00;;;;;21.40;99391.00;;;;2078211;28;20229;-58
2023/12/25 00:04:52;;;;;;;262.50;131.70;;;;;21.40;99377.00;;;;2078891;28;20241;-57
2023/12/25 00:05:52;;;;;;;331.60;162.00;;;;;21.40;99387.00;;;;2069010;28;20225;-55
2023/12/25 00:06:53;;;;;;;258.00;125.57;;;;;21.40;99384.00;;;;2068154;28;20221;-56
2023/12/25 00:07:54;;;;;;;258.03;126.83;;;;;21.40;99400.00;;;;2088083;28;20223;-55
2023/12/25 00:08:54;;;;;;;279.63;135.17;;;;;21.40;99389.00;;;;2084284;28;20459;-58
2023/12/25 00:09:54;;;;;;;298.27;144.47;;;;;21.40;99365.00;;;;2081714;28;20224;-58
2023/12/25 00:10:55;;;;;;;239.97;122.87;;;;;21.40;99385.00;;;;2068668;28;20227;-54
2023/12/25 00:11:55;;;;;;;249.83;118.90;;;;;21.40;99388.00;;;;2052786;28;20208;-56
2023/12/25 00:12:55;;;;;;;217.80;112.20;;;;;21.40;99390.00;;;;2074775;28;20210;-55
2023/12/25 00:13:57;;;;;;;238.83;115.97;;;;;21.40;99387.00;;;;2075021;28;20225;-58
2023/12/25 00:14:57;;;;;;;255.65;125.82;;;;;21.40;99409.00;;;;2081082;28;20218;-54
2023/12/25 00:15:57;;;;;;;228.03;112.27;;;;;21.40;99385.00;;;;2073654;28;20228;-55
2023/12/25 00:16:58;;;;;;;214.00;109.13;;;;;21.40;99279.00;;;;2067950;28;20682;-57
2023/12/25 00:17:58;;;;;;;222.07;108.83;;;;;21.30;99385.00;;;;2062193;28;21037;-57
2023/12/25 00:18:58;;;;;;;242.47;121.40;;;;;21.40;99376.00;;;;2059522;28;20731;-57
2023/12/25 00:19:59;;;;;;;222.60;111.03;;;;;21.30;99384.00;;;;2075021;28;20685;-57
2023/12/25 00:20:59;;;;;;;251.77;121.27;;;;;21.30;99400.00;;;;2071961;28;20218;-57
2023/12/25 00:21:59;;;;;;;188.00;95.40;;;;;21.40;99385.00;;;;2058786;28;20213;-57
2023/12/25 00:23:00;;;;;;;210.63;104.17;;;;;21.40;99402.00;;;;2074562;28;20241;-57
2023/12/25 00:24:00;;;;;;;190.57;98.27;;;;;21.40;99390.00;;;;2070970;28;20210;-57
2023/12/25 00:25:00;;;;;;;182.27;90.50;;;;;21.30;99397.00;;;;2077487;28;20996;-57
2023/12/25 00:26:01;;;;;;;199.30;101.33;;;;;21.30;99394.00;;;;2072033;28;20594;-57
2023/12/25 00:27:01;;;;;;;180.33;90.73;;;;;21.30;99401.00;;;;2063417;28;21049;-57
2023/12/25 00:28:02;;;;;;;173.80;84.60;;;;;21.30;99395.00;;;;2075940;28;20741;-57
2023/12/25 00:29:02;;;;;;;160.33;80.80;;;;;21.30;99385.00;;;;2068288;28;20222;-57
2023/12/25 00:30:03;;;;;;;161.17;82.00;;;;;21.30;99390.00;;;;2065940;28;20457;-57
2023/12/25 00:31:03;;;;;;;188.43;93.80;;;;;21.30;99384.00;;;;2065478;28;20277;-57
2023/12/25 00:32:04;;;;;;;152.33;75.87;;;;;21.30;99389.00;;;;2070011;28;20241;-57
2023/12/25 00:33:04;;;;;;;136.63;70.83;;;;;21.30;99378.00;;;;2069747;28;20207;-57
2023/12/25 00:34:05;;;;;;;129.27;66.23;;;;;21.30;99391.00;;;;2068393;28;20214;-57
2023/12/25 00:35:05;;;;;;;132.20;68.70;;;;;21.30;99387.00;;;;2072378;28;20210;-57
2023/12/25 00:36:05;;;;;;;145.20;73.27;;;;;21.30;99403.00;;;;2068835;28;20235;-57
2023/12/25 00:37:06;;;;;;;169.30;79.53;;;;;21.30;99400.00;;;;2065506;28;21336;-57
2023/12/25 00:38:06;;;;;;;131.40;65.67;;;;;21.30;99385.00;;;;2080204;28;21053;-57
2023/12/25 00:39:08;;;;;;;127.53;63.30;;;;;21.30;99390.00;;;;2074205;28;20226;-57
2023/12/25 00:40:08;;;;;;;125.93;60.97;;;;;21.20;99395.00;;;;2075394;28;20245;-57
2023/12/25 00:41:08;;;;;;;129.60;63.13;;;;;21.30;99398.00;;;;2070362;28;20238;-57
2023/12/25 00:42:09;;;;;;;141.37;68.30;;;;;21.30;99406.00;;;;2051757;28;20321;-57
2023/12/25 00:43:09;;;;;;;129.47;64.90;;;;;21.30;99404.00;;;;2065895;28;20222;-57
2023/12/25 00:44:09;;;;;;;112.23;55.07;;;;;21.30;99403.00;;;;2080259;28;20240;-57
2023/12/25 00:45:10;;;;;;;105.07;57.20;;;;;21.30;99408.00;;;;2078256;28;20209;-57
2023/12/25 00:46:10;;;;;;;112.87;58.93;;;;;21.30;99404.00;;;;2077823;28;20209;-57
2023/12/25 00:47:10;;;;;;;144.83;70.93;;;;;21.30;99413.00;;;;2065824;28;20304;-57
2023/12/25 00:48:11;;;;;;;109.40;56.87;;;;;21.30;99406.00;;;;2074006;28;20229;-57
2023/12/25 00:49:12;;;;;;;106.80;54.60;;;;;21.30;99390.00;;;;2077064;28;20299;-57
2023/12/25 00:50:12;;;;;;;137.85;70.60;;;;;21.30;99394.00;;;;2076967;28;21124;-57
2023/12/25 00:51:13;;;;;;;102.47;54.77;;;;;21.30;99410.00;;;;2077649;28;24690;-57
2023/12/25 00:52:17;;;;;;;107.83;55.53;;;;;21.30;99403.00;;;;2061380;28;20218;-57
2023/12/25 00:53:17;;;;;;;100.00;52.22;;;;;21.30;99398.00;;;;2077373;28;20760;-57
2023/12/25 00:54:19;;;;;;;95.07;51.60;;;;;21.30;99400.00;;;;2077924;28;20240;-57
2023/12/25 00:55:19;;;;;;;94.78;51.30;;;;;21.30;99403.00;;;;2075420;28;20260;-57
2023/12/25 00:56:19;;;;;;;96.67;48.10;;;;;21.30;99390.00;;;;2067404;28;20287;-57
2023/12/25 00:57:20;;;;;;;97.87;49.53;;;;;21.30;99400.00;;;;2077632;28;20217;-57
2023/12/25 00:58:20;;;;;;;83.33;44.27;;;;;21.30;99393.00;;;;2083205;28;20243;-57
2023/12/25 00:59:20;;;;;;;80.30;44.37;;;;;21.20;99385.00;;;;2067985;28;20218;-56
2023/12/25 01:00:21;;;;;;;86.43;45.60;;;;;21.30;99394.00;;;;2069866;28;20225;-57
2023/12/25 01:01:21;;;;;;;78.20;42.43;;;;;21.30;99395.00;;;;2061013;28;20234;-57
2023/12/25 01:02:21;;;;;;;73.40;39.80;;;;;21.20;99379.00;;;;2085547;28;20220;-57
2023/12/25 01:03:22;;;;;;;84.93;44.73;;;;;21.20;99392.00;;;;2084030;28;20221;-57
2023/12/25 01:04:22;;;;;;;105.47;55.60;;;;;21.20;99381.00;;;;2077849;28;20295;-57
2023/12/25 01:05:22;;;;;;;68.87;38.77;;;;;21.20;99394.00;;;;2075477;28;20221;-57
2023/12/25 01:06:23;;;;;;;71.83;39.00;;;;;21.30;99386.00;;;;2068140;28;20221;-57
2023/12/25 01:07:23;;;;;;;71.47;39.40;;;;;21.20;99392.00;;;;2069382;28;20236;-57
2023/12/25 01:08:23;;;;;;;60.40;36.00;;;;;20.60;99395.00;;;;2076540;28;20217;-57
2023/12/25 01:09:24;;;;;;;63.20;37.23;;;;;21.20;99404.00;;;;2068567;28;20238;-57
2023/12/25 01:10:24;;;;;;;69.30;37.67;;;;;21.20;99401.00;;;;2080249;28;20270;-57
2023/12/25 01:11:24;;;;;;;66.27;37.57;;;;;21.20;99411.00;;;;2067924;28;20217;-57
2023/12/25 01:12:25;;;;;;;58.73;34.17;;;;;21.20;99411.00;;;;2070547;28;20239;-57
2023/12/25 01:13:25;;;;;;;61.57;34.33;;;;;21.20;99389.00;;;;2076174;28;20894;-57
2023/12/25 01:14:25;;;;;;;58.37;33.83;;;;;21.20;99384.00;;;;2069801;28;20229;-57
2023/12/25 01:15:26;;;;;;;59.40;32.77;;;;;21.20;99402.00;;;;2076460;28;20206;-57
2023/12/25 01:16:26;;;;;;;60.90;33.43;;;;;21.20;99431.00;;;;2061419;28;20233;-57
2023/12/25 01:17:26;;;;;;;64.90;36.20;;;;;21.20;99390.00;;;;2075711;28;20727;-58
2023/12/25 01:18:27;;;;;;;52.17;29.93;;;;;21.20;99396.00;;;;2083118;28;20638;-58
2023/12/25 01:19:27;;;;;;;55.13;33.00;;;;;21.20;99406.00;;;;2072913;28;20221;-58
2023/12/25 01:20:27;;;;;;;53.33;31.10;;;;;21.20;99412.00;;;;2067135;28;20218;-58
2023/12/25 01:21:28;;;;;;;55.97;33.10;;;;;21.20;99422.00;;;;2059189;28;20617;-57
2023/12/25 01:22:28;;;;;;;52.20;30.03;;;;;21.20;99414.00;;;;2076639;28;20716;-58
2023/12/25 01:23:28;;;;;;;52.00;29.43;;;;;21.20;99423.00;;;;2069034;28;20745;-57
2023/12/25 01:24:29;;;;;;;58.47;32.60;;;;;21.20;99405.00;;;;2070686;28;20812;-57
2023/12/25 01:25:29;;;;;;;73.30;38.40;;;;;21.20;99408.00;;;;2069991;28;20733;-57
2023/12/25 01:26:32;;;;;;;47.97;27.30;;;;;21.20;99396.00;;;;2056925;28;20222;-58
2023/12/25 01:27:33;;;;;;;44.58;25.10;;;;;21.20;99419.00;;;;2074366;28;20222;-57
2023/12/25 01:28:33;;;;;;;45.60;25.40;;;;;21.20;99400.00;;;;2075939;28;20665;-57
2023/12/25 01:29:34;;;;;;;44.13;25.20;;;;;21.20;99400.00;;;;2077688;28;20209;-57
2023/12/25 01:30:34;;;;;;;45.43;25.00;;;;;21.20;99391.00;;;;2062298;28;20238;-57
2023/12/25 01:31:35;;;;;;;54.60;30.60;;;;;21.20;99397.00;;;;2058969;28;20276;-57
2023/12/25 01:32:36;;;;;;;46.25;24.80;;;;;21.20;99411.00;;;;2071065;28;20297;-57
2023/12/25 01:33:36;;;;;;;46.70;25.43;;;;;21.10;99435.00;;;;2077854;28;20578;-57
2023/12/25 01:34:37;;;;;;;39.83;24.00;;;;;21.10;99413.00;;;;2083387;28;20221;-57
2023/12/25 01:35:37;;;;;;;39.17;21.37;;;;;21.10;99419.00;;;;2077722;28;20271;-57
2023/12/25 01:36:38;;;;;;;46.77;24.20;;;;;21.10;99416.00;;;;2065667;28;20233;-57
2023/12/25 01:37:38;;;;;;;39.90;22.27;;;;;21.10;99396.00;;;;2062599;28;20653;-57
2023/12/25 01:38:39;;;;;;;41.27;21.30;;;;;21.10;99425.00;;;;2069008;28;20239;-57
2023/12/25 01:39:39;;;;;;;39.43;20.70;;;;;21.10;99429.00;;;;2053221;28;20215;-57
2023/12/25 01:40:43;;;;;;;41.40;23.20;;;;;21.10;99431.00;;;;2060911;28;20223;-57
2023/12/25 01:41:44;;;;;;;36.55;20.63;;;;;21.10;99418.00;;;;2061934;28;20989;-57
2023/12/25 01:42:44;;;;;;;33.67;19.17;;;;;21.20;99423.00;;;;2066063;28;20209;-57
2023/12/25 01:43:44;;;;;;;32.53;19.33;;;;;21.10;99431.00;;;;2079608;28;20204;-57
2023/12/25 01:44:47;;;;;;;33.67;18.40;;;;;21.20;99425.00;;;;2074990;28;20670;-57
2023/12/25 01:45:47;;;;;;;32.08;17.60;;;;;21.20;99431.00;;;;2064164;28;20249;-57
2023/12/25 01:46:47;;;;;;;34.13;19.07;;;;;21.20;99435.00;;;;2061641;28;20241;-57
2023/12/25 01:47:48;;;;;;;30.27;18.20;;;;;21.20;99432.00;;;;2078070;28;20290;-57
2023/12/25 01:48:50;;;;;;;29.97;16.70;;;;;21.20;99443.00;;;;2059401;28;20215;-57
2023/12/25 01:49:50;;;;;;;43.58;22.17;;;;;21.20;99435.00;;;;2057846;28;20313;-57
2023/12/25 01:50:52;;;;;;;31.07;17.53;;;;;21.10;99432.00;;;;2066408;28;20269;-57
2023/12/25 01:51:52;;;;;;;29.10;16.40;;;;;21.10;99432.00;;;;2067348;28;20214;-57
2023/12/25 01:52:53;;;;;;;30.30;16.27;;;;;21.10;99447.00;;;;2062215;28;20226;-57
2023/12/25 01:53:53;;;;;;;26.67;16.07;;;;;21.10;99442.00;;;;2065068;28;20249;-57
2023/12/25 01:54:54;;;;;;;28.53;16.77;;;;;21.10;99423.00;;;;2072503;28;20217;-57
2023/12/25 01:55:54;;;;;;;27.50;14.93;;;;;21.10;99456.00;;;;2060878;28;20242;-57
2023/12/25 01:56:54;;;;;;;26.80;14.90;;;;;21.10;99445.00;;;;2051205;28;20285;-57
2023/12/25 01:57:55;;;;;;;23.30;15.03;;;;;21.10;99457.00;;;;2076140;28;20241;-57
2023/12/25 01:58:55;;;;;;;26.07;15.20;;;;;21.10;99450.00;;;;2072329;28;20221;-57
2023/12/25 01:59:55;;;;;;;21.00;13.17;;;;;21.10;99450.00;;;;2068866;28;20218;-57
2023/12/25 02:00:56;;;;;;;25.17;14.87;;;;;21.10;99473.00;;;;2074279;28;20294;-57
2023/12/25 02:01:57;;;;;;;26.47;14.87;;;;;21.10;99451.00;;;;2062575;28;20210;-56
2023/12/25 02:03:00;;;;;;;24.38;13.48;;;;;21.10;99452.00;;;;2076027;28;20221;-57
2023/12/25 02:04:00;;;;;;;26.02;15.25;;;;;21.10;99447.00;;;;2078265;28;20221;-57
2023/12/25 02:05:00;;;;;;;26.30;14.20;;;;;21.10;99456.00;;;;2070124;28;20621;-57
2023/12/25 02:06:01;;;;;;;23.80;13.30;;;;;21.10;99461.00;;;;2073161;28;20686;-61
2023/12/25 02:07:01;;;;;;;20.87;12.90;;;;;21.10;99468.00;;;;2058116;28;20715;-59
2023/12/25 02:08:02;;;;;;;22.53;13.30;;;;;21.10;99458.00;;;;2064944;28;20218;-57
2023/12/25 02:09:02;;;;;;;21.37;12.80;;;;;21.10;99445.00;;;;2060599;28;20629;-58
2023/12/25 02:10:03;;;;;;;21.27;11.97;;;;;21.10;99434.00;;;;2059557;28;20465;-58
2023/12/25 02:11:04;;;;;;;21.53;12.17;;;;;21.10;99448.00;;;;2071139;28;20230;-58
2023/12/25 02:12:04;;;;;;;21.37;12.80;;;;;21.10;99452.00;;;;2062502;28;20221;-57
2023/12/25 02:13:05;;;;;;;23.93;12.20;;;;;21.10;99437.00;;;;2077918;28;20237;-56
2023/12/25 02:14:05;;;;;;;19.83;11.63;;;;;21.10;99432.00;;;;2076915;28;20221;-57
2023/12/25 02:15:06;;;;;;;19.20;11.50;;;;;21.10;99453.00;;;;2068891;28;20222;-56
2023/12/25 02:16:07;;;;;;;17.70;11.57;;;;;21.10;99446.00;;;;2063144;28;20350;-57
2023/12/25 02:17:08;;;;;;;20.30;11.52;;;;;21.10;99444.00;;;;2043064;28;20322;-58
2023/12/25 02:18:08;;;;;;;18.10;11.30;;;;;21.10;99452.00;;;;2041866;28;20220;-57
2023/12/25 02:19:19;;;;;;;15.97;10.27;;;;;21.10;99444.00;;;;2060387;28;20871;-58
2023/12/25 02:20:20;;;;;;;16.63;9.80;;;;;21.10;99451.00;;;;2058104;28;20215;-56
2023/12/25 02:21:20;;;;;;;16.33;9.87;;;;;21.10;99447.00;;;;2043248;28;20281;-56
2023/12/25 02:22:20;;;;;;;15.80;9.50;;;;;21.10;99435.00;;;;2062716;28;20226;-57
2023/12/25 02:23:21;;;;;;;16.67;9.40;;;;;21.10;99444.00;;;;2066438;28;20257;-57
2023/12/25 02:24:23;;;;;;;17.23;9.30;;;;;21.00;99444.00;;;;2045938;28;20216;-58
2023/12/25 02:25:31;;;;;;;16.42;9.50;;;;;21.00;99445.00;;;;2067603;28;20210;-58
2023/12/25 02:26:31;;;;;;;15.38;8.80;;;;;21.00;99443.00;;;;2058533;28;20304;-57
2023/12/25 02:27:31;;;;;;;15.07;9.23;;;;;21.00;99447.00;;;;2070552;28;20214;-58
2023/12/25 02:28:32;;;;;;;18.63;9.50;;;;;21.00;99460.00;;;;2068885;28;20231;-58
2023/12/25 02:29:33;;;;;;;13.00;7.97;;;;;21.00;99428.00;;;;2067515;28;20210;-56
2023/12/25 02:30:34;;;;;;;15.55;9.20;;;;;21.00;99445.00;;;;2068151;28;20257;-57
2023/12/25 02:31:34;;;;;;;13.03;7.83;;;;;21.00;99472.00;;;;2051014;28;20675;-56
2023/12/25 02:32:35;;;;;;;13.30;7.33;;;;;21.00;99437.00;;;;2071837;28;20701;-62
2023/12/25 02:33:35;;;;;;;12.80;7.63;;;;;21.00;99444.00;;;;2076997;28;20206;-60
2023/12/25 02:34:35;;;;;;;14.53;8.40;;;;;21.00;99443.00;;;;2072851;28;20210;-58
2023/12/25 02:35:36;;;;;;;14.80;8.60;;;;;21.00;99433.00;;;;2075193;28;20201;-58
2023/12/25 02:36:36;;;;;;;11.33;7.07;;;;;21.00;99454.00;;;;2066292;28;20218;-59
2023/12/25 02:37:36;;;;;;;12.80;6.87;;;;;21.00;99443.00;;;;2075704;28;20324;-58
2023/12/25 02:38:37;;;;;;;14.13;7.77;;;;;21.00;99460.00;;;;2071694;28;20252;-56
2023/12/25 02:39:37;;;;;;;12.93;7.90;;;;;21.00;99455.00;;;;2079556;28;20217;-56
2023/12/25 02:40:40;;;;;;;11.47;7.10;;;;;21.00;99463.00;;;;2069061;28;20213;-57
2023/12/25 02:41:41;;;;;;;11.13;6.40;;;;;21.00;99458.00;;;;2063321;28;20228;-58
2023/12/25 02:42:41;;;;;;;12.27;6.90;;;;;21.00;99468.00;;;;2070354;28;20229;-56
2023/12/25 02:43:41;;;;;;;11.97;7.07;;;;;21.00;99465.00;;;;2076628;28;20221;-58
2023/12/25 02:44:42;;;;;;;9.93;5.80;;;;;21.00;99468.00;;;;2077022;28;20237;-57
2023/12/25 02:45:42;;;;;;;11.27;6.80;;;;;21.00;99456.00;;;;2076154;28;20271;-58
2023/12/25 02:46:42;;;;;;;9.40;5.57;;;;;21.00;99464.00;;;;2067839;28;20213;-57
2023/12/25 02:47:43;;;;;;;11.27;6.30;;;;;21.00;99474.00;;;;2068194;28;20257;-58
2023/12/25 02:48:43;;;;;;;11.53;6.00;;;;;21.00;99498.00;;;;2065746;28;20748;-57
2023/12/25 02:49:43;;;;;;;9.93;5.23;;;;;21.00;99466.00;;;;2065647;28;20674;-56
2023/12/25 02:50:43;;;;;;;12.20;7.10;;;;;21.00;99451.00;;;;2070443;28;20210;-57
2023/12/25 02:51:44;;;;;;;11.03;5.87;;;;;21.00;99461.00;;;;2065621;28;20218;-57
2023/12/25 02:52:44;;;;;;;8.90;5.23;;;;;21.00;99465.00;;;;2070704;28;20246;-56
2023/12/25 02:53:45;;;;;;;12.67;5.60;;;;;21.00;99460.00;;;;2077268;28;20349;-58
2023/12/25 02:54:45;;;;;;;9.90;5.80;;;;;21.00;99462.00;;;;2068655;28;20249;-56
2023/12/25 02:55:46;;;;;;;9.30;5.17;;;;;21.00;99449.00;;;;2077627;28;20217;-56
2023/12/25 02:56:46;;;;;;;9.57;5.13;;;;;21.00;99463.00;;;;2075011;28;20224;-56
2023/12/25 02:57:47;;;;;;;8.67;4.77;;;;;21.00;99463.00;;;;2076955;28;20242;-56
2023/12/25 02:58:48;;;;;;;7.85;4.07;;;;;21.00;99456.00;;;;2080518;28;20225;-56
2023/12/25 02:59:48;;;;;;;8.00;5.00;;;;;21.00;99470.00;;;;2073646;28;20209;-56
2023/12/25 03:00:50;;;;;;;8.70;4.90;;;;;21.00;99468.00;;;;2076265;28;20217;-58
2023/12/25 03:01:50;;;;;;;7.68;4.32;;;;;21.00;99466.00;;;;2064674;28;20308;-56
2023/12/25 03:02:51;;;;;;;9.07;5.13;;;;;21.00;99458.00;;;;2071461;28;20678;-57
2023/12/25 03:03:51;;;;;;;8.60;4.40;;;;;21.00;99460.00;;;;2076456;28;20689;-56
2023/12/25 03:04:51;;;;;;;10.27;4.60;;;;;21.00;99458.00;;;;2066741;28;20218;-56
2023/12/25 03:05:51;;;;;;;7.97;4.23;;;;;21.00;99463.00;;;;2064001;28;20210;-56
2023/12/25 03:06:52;;;;;;;8.83;4.53;;;;;21.00;99456.00;;;;2059601;28;20244;-58
2023/12/25 03:07:52;;;;;;;7.13;4.20;;;;;21.00;99453.00;;;;2076751;28;20248;-57
2023/12/25 03:08:52;;;;;;;7.53;4.43;;;;;21.00;99455.00;;;;2076516;28;20671;-56
2023/12/25 03:09:53;;;;;;;10.13;5.50;;;;;21.00;99459.00;;;;2081299;28;20584;-56
2023/12/25 03:10:53;;;;;;;7.67;4.20;;;;;21.00;99467.00;;;;2076867;28;20677;-57
2023/12/25 03:11:53;;;;;;;7.80;3.93;;;;;21.00;99489.00;;;;2067275;28;20695;-58
2023/12/25 03:12:54;;;;;;;7.70;3.67;;;;;21.00;99479.00;;;;2071056;28;20694;-57
2023/12/25 03:13:54;;;;;;;8.07;4.00;;;;;21.00;99463.00;;;;2071984;28;20734;-58
2023/12/25 03:14:54;;;;;;;6.73;4.20;;;;;21.00;99469.00;;;;2071209;28;21143;-57
2023/12/25 03:15:55;;;;;;;7.23;4.00;;;;;21.00;99471.00;;;;2077295;28;20686;-56
2023/12/25 03:16:55;;;;;;;6.53;3.57;;;;;20.90;99465.00;;;;2072169;28;20226;-56
2023/12/25 03:17:55;;;;;;;7.60;4.03;;;;;21.00;99476.00;;;;2077137;28;20224;-56
2023/12/25 03:18:56;;;;;;;6.13;3.70;;;;;21.00;99467.00;;;;2073053;28;20249;-58
2023/12/25 03:19:56;;;;;;;6.13;3.80;;;;;20.50;99476.00;;;;2075662;28;20248;-57
2023/12/25 03:20:56;;;;;;;6.17;3.50;;;;;20.90;99463.00;;;;2078657;28;20248;-57
2023/12/25 03:21:57;;;;;;;7.37;3.47;;;;;20.90;99464.00;;;;2072431;28;21118;-57
2023/12/25 03:22:57;;;;;;;6.37;3.57;;;;;21.00;99496.00;;;;2075651;28;20566;-56
2023/12/25 03:23:57;;;;;;;5.80;3.10;;;;;20.90;99478.00;;;;2076551;28;20728;-56
2023/12/25 03:24:59;;;;;;;6.80;3.83;;;;;20.90;99484.00;;;;2074049;28;20578;-56
2023/12/25 03:25:59;;;;;;;6.43;3.35;;;;;20.90;99465.00;;;;2080711;28;20224;-56
2023/12/25 03:27:00;;;;;;;4.90;2.53;;;;;21.00;99478.00;;;;2071527;28;20237;-57
2023/12/25 03:28:00;;;;;;;6.00;3.30;;;;;20.90;99471.00;;;;2071360;28;20928;-56
2023/12/25 03:29:01;;;;;;;5.70;3.37;;;;;21.00;99478.00;;;;2072765;28;20796;-58
2023/12/25 03:30:02;;;;;;;5.80;3.30;;;;;20.90;99472.00;;;;2069846;28;20590;-56
2023/12/25 03:31:02;;;;;;;5.53;2.90;;;;;20.90;99468.00;;;;2070321;28;20543;-58
2023/12/25 03:32:03;;;;;;;6.63;3.07;;;;;20.90;99460.00;;;;2062969;28;20225;-57
2023/12/25 03:33:03;;;;;;;5.90;3.27;;;;;20.90;99462.00;;;;2076110;28;20214;-57
2023/12/25 03:34:04;;;;;;;6.10;2.93;;;;;20.90;99462.00;;;;2077102;28;20293;-56
2023/12/25 03:35:04;;;;;;;4.97;2.83;;;;;20.90;99467.00;;;;2076690;28;20217;-56
2023/12/25 03:36:05;;;;;;;5.20;2.80;;;;;20.90;99481.00;;;;2077882;28;20222;-58
2023/12/25 03:37:05;;;;;;;5.00;2.60;;;;;20.90;99470.00;;;;2059491;28;20333;-57
2023/12/25 03:38:06;;;;;;;4.77;2.57;;;;;20.90;99483.00;;;;2068977;28;20214;-58
2023/12/25 03:39:06;;;;;;;5.53;3.00;;;;;20.90;99462.00;;;;2065267;28;20706;-56
2023/12/25 03:40:07;;;;;;;6.27;2.47;;;;;20.90;99467.00;;;;2073445;28;20577;-56
2023/12/25 03:41:08;;;;;;;4.37;2.43;;;;;20.90;99480.00;;;;2075678;28;20284;-57
2023/12/25 03:42:09;;;;;;;4.57;2.17;;;;;20.90;99474.00;;;;2063885;28;20555;-57
2023/12/25 03:43:09;;;;;;;3.90;2.20;;;;;20.90;99456.00;;;;2079015;28;20232;-58
2023/12/25 03:44:09;;;;;;;4.93;2.60;;;;;20.90;99453.00;;;;2068256;28;20250;-57
2023/12/25 03:45:09;;;;;;;3.70;2.10;;;;;20.90;99453.00;;;;2072845;28;20225;-57
2023/12/25 03:46:10;;;;;;;5.23;2.80;;;;;20.90;99462.00;;;;2068667;28;20287;-58
2023/12/25 03:47:11;;;;;;;4.63;2.53;;;;;20.90;99460.00;;;;2063419;28;20308;-63
2023/12/25 03:48:11;;;;;;;5.40;2.90;;;;;20.90;99452.00;;;;2076778;28;20233;-58
2023/12/25 03:49:11;;;;;;;4.30;2.10;;;;;20.90;99451.00;;;;2071484;28;20504;-59
2023/12/25 03:50:12;;;;;;;4.40;2.00;;;;;20.90;99449.00;;;;2071034;28;20241;-56
2023/12/25 03:51:12;;;;;;;4.30;2.10;;;;;20.90;99464.00;;;;2067446;28;20233;-57
2023/12/25 03:52:13;;;;;;;3.40;1.90;;;;;20.90;99473.00;;;;2049853;28;20274;-56
2023/12/25 03:53:13;;;;;;;4.40;2.27;;;;;20.90;99459.00;;;;2062890;28;20601;-56
2023/12/25 03:54:13;;;;;;;4.90;2.47;;;;;20.90;99468.00;;;;2074135;28;20669;-56
2023/12/25 03:55:14;;;;;;;3.63;2.07;;;;;20.90;99455.00;;;;2064506;28;20804;-59
2023/12/25 03:56:17;;;;;;;3.93;2.40;;;;;20.90;99474.00;;;;2055553;28;20791;-58
2023/12/25 03:57:17;;;;;;;4.35;2.08;;;;;20.90;99468.00;;;;2068321;28;20225;-56
2023/12/25 03:58:18;;;;;;;3.97;1.70;;;;;20.90;99468.00;;;;2070329;28;20263;-56
2023/12/25 03:59:18;;;;;;;4.23;1.83;;;;;20.90;99470.00;;;;2068158;28;20264;-57
2023/12/25 04:00:18;;;;;;;5.80;2.80;;;;;20.90;99469.00;;;;2070641;28;20218;-57
2023/12/25 04:01:21;;;;;;;4.17;2.07;;;;;20.90;99472.00;;;;2059870;28;20214;-57
2023/12/25 04:02:21;;;;;;;3.28;1.88;;;;;20.90;99483.00;;;;2077249;28;20324;-57
2023/12/25 04:03:21;;;;;;;5.30;1.80;;;;;20.90;99501.00;;;;2076312;28;20702;-55
2023/12/25 04:04:22;;;;;;;4.03;1.90;;;;;20.80;99470.00;;;;2077132;28;20262;-57
2023/12/25 04:05:23;;;;;;;3.50;1.80;;;;;20.90;99482.00;;;;2077162;28;20206;-56
2023/12/25 04:06:24;;;;;;;3.20;1.60;;;;;20.80;99476.00;;;;2061847;28;20704;-56
2023/12/25 04:07:24;;;;;;;3.43;1.53;;;;;20.90;99475.00;;;;2080157;28;20209;-58
2023/12/25 04:08:25;;;;;;;3.57;1.87;;;;;20.90;99480.00;;;;2074062;28;20282;-57
2023/12/25 04:09:25;;;;;;;2.30;1.10;;;;;20.80;99497.00;;;;2068563;28;20210;-58
2023/12/25 04:10:25;;;;;;;4.40;1.67;;;;;20.90;99501.00;;;;2077843;28;20216;-57
2023/12/25 04:11:26;;;;;;;3.20;1.80;;;;;20.80;99494.00;;;;2067150;28;20208;-56
2023/12/25 04:12:26;;;;;;;3.67;1.97;;;;;20.80;99506.00;;;;2076123;28;20213;-57
2023/12/25 04:13:26;;;;;;;4.47;1.70;;;;;20.80;99509.00;;;;2077054;28;20229;-57
2023/12/25 04:14:28;;;;;;;3.27;1.37;;;;;20.90;99502.00;;;;2074240;28;20218;-57
2023/12/25 04:15:28;;;;;;;3.77;1.70;;;;;20.90;99515.00;;;;2070754;28;20302;-56
2023/12/25 04:16:28;;;;;;;3.30;1.57;;;;;20.80;99484.00;;;;2056271;28;20218;-57
2023/12/25 04:17:28;;;;;;;3.07;1.60;;;;;20.80;99493.00;;;;2068861;28;20321;-58
2023/12/25 04:18:29;;;;;;;3.00;1.43;;;;;20.80;99493.00;;;;2078347;28;20217;-58
2023/12/25 04:19:29;;;;;;;3.60;1.47;;;;;20.80;99502.00;;;;2085378;28;20274;-58
2023/12/25 04:20:30;;;;;;;3.67;1.77;;;;;20.90;99490.00;;;;2084720;28;20244;-57
2023/12/25 04:21:31;;;;;;;3.20;1.47;;;;;20.80;99495.00;;;;2070472;28;20217;-57
2023/12/25 04:22:31;;;;;;;4.30;1.60;;;;;20.90;99495.00;;;;2080412;28;20236;-58
2023/12/25 04:23:32;;;;;;;2.30;1.40;;;;;20.90;99519.00;;;;2079551;28;20939;-58
2023/12/25 04:24:32;;;;;;;2.90;1.43;;;;;20.80;99237.00;;;;2073201;28;20225;-58
2023/12/25 04:25:33;;;;;;;4.00;1.40;;;;;20.90;99509.00;;;;2077644;28;20351;-57
2023/12/25 04:26:33;;;;;;;2.90;1.40;;;;;20.80;99508.00;;;;2072087;28;20317;-57
2023/12/25 04:27:33;;;;;;;3.40;1.60;;;;;20.80;99496.00;;;;2079014;28;20229;-57
2023/12/25 04:28:34;;;;;;;2.57;1.30;;;;;20.80;99498.00;;;;2084697;28;20365;-57
2023/12/25 04:29:34;;;;;;;3.13;1.60;;;;;20.80;99500.00;;;;2077119;28;20290;-57
2023/12/25 04:30:34;;;;;;;2.53;1.57;;;;;20.20;99498.00;;;;2069027;28;20688;-56
2023/12/25 04:31:35;;;;;;;2.47;1.23;;;;;20.80;99505.00;;;;2058968;28;20240;-56
2023/12/25 04:32:35;;;;;;;2.60;1.50;;;;;20.80;99512.00;;;;2077609;28;20237;-56
2023/12/25 04:33:36;;;;;;;2.47;1.10;;;;;20.80;99501.00;;;;2083215;28;20223;-56
2023/12/25 04:34:36;;;;;;;2.43;1.17;;;;;20.80;99498.00;;;;2070907;28;20226;-57
2023/12/25 04:35:36;;;;;;;2.87;1.37;;;;;20.80;99504.00;;;;2067190;28;21281;-57
2023/12/25 04:36:37;;;;;;;2.50;1.30;;;;;20.80;99507.00;;;;2060827;28;20261;-56
2023/12/25 04:37:38;;;;;;;3.10;1.10;;;;;20.80;99497.00;;;;2077208;28;20225;-56
2023/12/25 04:38:38;;;;;;;2.60;1.23;;;;;20.80;99495.00;;;;2078293;28;20283;-58
2023/12/25 04:39:40;;;;;;;2.90;1.40;;;;;20.80;99495.00;;;;2076565;28;20226;-57
2023/12/25 04:40:41;;;;;;;2.15;0.93;;;;;20.80;99483.00;;;;2082961;28;20224;-58
2023/12/25 04:41:41;;;;;;;2.23;1.00;;;;;20.80;99537.00;;;;2068655;28;20579;-57
2023/12/25 04:42:41;;;;;;;2.47;1.30;;;;;20.80;99487.00;;;;2077715;28;20640;-56
2023/12/25 04:43:42;;;;;;;2.23;1.07;;;;;20.80;99494.00;;;;2078755;28;20581;-57
2023/12/25 04:44:42;;;;;;;2.53;1.23;;;;;20.80;99491.00;;;;2071195;28;20674;-57
2023/12/25 04:45:42;;;;;;;2.80;1.17;;;;;20.80;99486.00;;;;2061727;28;20708;-58
2023/12/25 04:46:43;;;;;;;2.07;1.03;;;;;20.80;99482.00;;;;2058693;28;20222;-58
2023/12/25 04:47:43;;;;;;;2.20;1.17;;;;;20.80;99482.00;;;;2077186;28;20325;-58
2023/12/25 04:48:44;;;;;;;2.53;1.13;;;;;20.80;99484.00;;;;2076989;28;20213;-57
2023/12/25 04:49:44;;;;;;;2.20;1.10;;;;;20.80;99485.00;;;;2075619;28;20312;-56
2023/12/25 04:50:44;;;;;;;2.43;1.20;;;;;20.80;99489.00;;;;2068116;28;20214;-57
2023/12/25 04:51:45;;;;;;;2.47;1.40;;;;;20.80;99485.00;;;;2061750;28;20214;-56
2023/12/25 04:52:45;;;;;;;4.67;1.20;;;;;20.80;99494.00;;;;2069920;28;20214;-57
2023/12/25 04:53:45;;;;;;;2.10;1.00;;;;;20.80;99499.00;;;;2078112;28;20263;-57
2023/12/25 04:54:46;;;;;;;3.40;1.60;;;;;20.80;99503.00;;;;2077487;28;20296;-57
2023/12/25 04:55:46;;;;;;;2.10;1.20;;;;;20.80;99490.00;;;;2078217;28;20237;-56
2023/12/25 04:56:48;;;;;;;2.80;1.27;;;;;20.80;99489.00;;;;2067343;28;20220;-56
2023/12/25 04:57:48;;;;;;;2.50;1.10;;;;;20.80;99493.00;;;;2078075;28;20225;-57
2023/12/25 04:58:48;;;;;;;2.20;0.90;;;;;20.80;99479.00;;;;2077849;28;20294;-60